createdAt,value
2017-02-12T00:00:53.071Z,0
2017-02-12T00:02:03.339Z,0
2017-02-12T00:03:13.998Z,0
2017-02-12T00:04:24.663Z,0
2017-02-12T00:05:35.329Z,0
2017-02-12T00:06:45.994Z,0
2017-02-12T00:07:56.660Z,0
2017-02-12T00:09:07.324Z,0
2017-02-12T00:10:17.984Z,0
2017-02-12T00:11:28.293Z,0
2017-02-12T00:12:38.558Z,0
2017-02-12T00:13:49.220Z,0
2017-02-12T00:14:59.879Z,0
2017-02-12T00:16:10.547Z,0
2017-02-12T00:17:21.207Z,0
2017-02-12T00:18:31.879Z,0
2017-02-12T00:19:42.536Z,0
2017-02-12T00:20:53.195Z,0
2017-02-12T00:22:03.855Z,0
2017-02-12T00:23:14.517Z,0
2017-02-12T00:24:25.182Z,0
2017-02-12T00:25:35.842Z,0
2017-02-12T00:26:46.504Z,0
2017-02-12T00:27:57.163Z,0
2017-02-12T00:29:07.827Z,0
2017-02-12T00:30:18.108Z,0
2017-02-12T00:31:28.774Z,0
2017-02-12T00:32:39.429Z,0
2017-02-12T00:33:50.094Z,0
2017-02-12T00:35:00.758Z,0
2017-02-12T00:36:11.020Z,0
2017-02-12T00:37:21.679Z,0
2017-02-12T00:38:32.359Z,0
2017-02-12T00:39:43.046Z,0
2017-02-12T00:40:53.705Z,0
2017-02-12T00:42:04.420Z,0
2017-02-12T00:43:14.285Z,0
2017-02-12T00:44:24.989Z,0
2017-02-12T00:45:35.646Z,0
2017-02-12T00:46:46.306Z,0
2017-02-12T00:47:56.968Z,0
2017-02-12T00:49:07.630Z,0
2017-02-12T00:50:17.895Z,0
2017-02-12T00:51:28.557Z,0
2017-02-12T00:52:38.815Z,0
2017-02-12T00:53:49.473Z,0
2017-02-12T00:55:00.181Z,0
2017-02-12T00:56:10.448Z,0
2017-02-12T00:57:21.107Z,0
2017-02-12T00:58:31.764Z,0
2017-02-12T00:59:42.425Z,0
2017-02-12T01:00:52.688Z,0
2017-02-12T01:02:03.352Z,0
2017-02-12T01:03:14.016Z,0
2017-02-12T01:04:23.941Z,0
2017-02-12T01:05:34.645Z,0
2017-02-12T01:06:45.311Z,0
2017-02-12T01:07:55.975Z,0
2017-02-12T01:09:06.639Z,0
2017-02-12T01:10:16.942Z,0
2017-02-12T01:11:27.608Z,0
2017-02-12T01:12:38.273Z,0
2017-02-12T01:13:48.942Z,0
2017-02-12T01:14:59.604Z,0
2017-02-12T01:16:09.866Z,0
2017-02-12T01:17:20.131Z,0
2017-02-12T01:18:30.796Z,0
2017-02-12T01:19:41.465Z,0
2017-02-12T01:20:52.131Z,0
2017-02-12T01:22:02.797Z,0
2017-02-12T01:23:13.062Z,0
2017-02-12T01:24:23.787Z,0
2017-02-12T01:25:34.465Z,0
2017-02-12T01:26:45.133Z,0
2017-02-12T01:27:55.796Z,0
2017-02-12T01:29:06.455Z,0
2017-02-12T01:30:17.122Z,0
2017-02-12T01:31:27.781Z,0
2017-02-12T01:32:38.444Z,0
2017-02-12T01:33:49.107Z,0
2017-02-12T01:34:59.775Z,0
2017-02-12T01:36:10.438Z,0
2017-02-12T01:37:21.100Z,0
2017-02-12T01:38:31.762Z,0
2017-02-12T01:39:42.028Z,0
2017-02-12T01:40:52.689Z,0
2017-02-12T01:42:03.350Z,0
2017-02-12T01:43:14.006Z,0
2017-02-12T01:44:24.306Z,0
2017-02-12T01:45:34.970Z,0
2017-02-12T01:46:45.684Z,0
2017-02-12T01:47:56.344Z,0
2017-02-12T01:49:06.607Z,0
2017-02-12T01:50:16.474Z,0
2017-02-12T01:51:27.131Z,0
2017-02-12T01:52:37.789Z,0
2017-02-12T01:53:48.055Z,0
2017-02-12T01:54:58.721Z,0
2017-02-12T01:56:08.988Z,0
2017-02-12T01:57:19.649Z,0
2017-02-12T01:58:30.306Z,0
2017-02-12T01:59:40.974Z,0
2017-02-12T02:00:51.637Z,0
2017-02-12T02:02:02.301Z,0
2017-02-12T02:03:12.964Z,0
2017-02-12T02:04:23.625Z,0
2017-02-12T02:05:34.292Z,0
2017-02-12T02:06:44.960Z,0
2017-02-12T02:07:55.625Z,0
2017-02-12T02:09:06.289Z,0
2017-02-12T02:10:16.159Z,0
2017-02-12T02:11:26.816Z,0
2017-02-12T02:12:37.480Z,0
2017-02-12T02:13:48.143Z,0
2017-02-12T02:14:58.841Z,0
2017-02-12T02:16:09.509Z,0
2017-02-12T02:17:20.172Z,0
2017-02-12T02:18:30.839Z,0
2017-02-12T02:19:41.499Z,0
2017-02-12T02:20:52.159Z,0
2017-02-12T02:22:02.824Z,0
2017-02-12T02:23:13.101Z,0
2017-02-12T02:24:23.768Z,0
2017-02-12T02:25:34.431Z,0
2017-02-12T02:26:45.100Z,0
2017-02-12T02:27:55.767Z,0
2017-02-12T02:29:06.432Z,0
2017-02-12T02:30:17.110Z,0
2017-02-12T02:31:27.776Z,0
2017-02-12T02:32:38.443Z,0
2017-02-12T02:33:49.109Z,0
2017-02-12T02:34:59.767Z,0
2017-02-12T02:36:10.440Z,0
2017-02-12T02:37:21.106Z,0
2017-02-12T02:38:31.770Z,0
2017-02-12T02:39:42.442Z,0
2017-02-12T02:40:52.714Z,0
2017-02-12T02:42:03.419Z,0
2017-02-12T02:43:14.084Z,0
2017-02-12T02:44:24.757Z,0
2017-02-12T02:45:35.524Z,0
2017-02-12T02:46:45.793Z,0
2017-02-12T02:47:56.458Z,0
2017-02-12T02:49:07.122Z,0
2017-02-12T02:50:17.383Z,0
2017-02-12T02:51:28.046Z,0
2017-02-12T02:52:38.708Z,0
2017-02-12T02:53:49.376Z,0
2017-02-12T02:55:00.043Z,0
2017-02-12T02:56:10.707Z,0
2017-02-12T02:57:21.383Z,0
2017-02-12T02:58:31.651Z,0
2017-02-12T02:59:42.315Z,0
2017-02-12T03:00:52.978Z,0
2017-02-12T03:02:03.645Z,0
2017-02-12T03:03:17.654Z,0
2017-02-12T03:04:28.321Z,0
2017-02-12T03:05:38.981Z,0
2017-02-12T03:06:49.646Z,0
2017-02-12T03:08:00.309Z,0
2017-02-12T03:09:10.970Z,0
2017-02-12T03:10:21.234Z,0
2017-02-12T03:11:31.893Z,0
2017-02-12T03:12:42.569Z,0
2017-02-12T03:13:53.238Z,0
2017-02-12T03:15:04.318Z,0
2017-02-12T03:16:14.580Z,0
2017-02-12T03:17:25.244Z,0
2017-02-12T03:18:35.915Z,0
2017-02-12T03:19:46.581Z,0
2017-02-12T03:20:57.549Z,0
2017-02-12T03:22:08.217Z,0
2017-02-12T03:23:18.877Z,0
2017-02-12T03:24:29.541Z,0
2017-02-12T03:25:40.205Z,0
2017-02-12T03:26:50.913Z,0
2017-02-12T03:28:01.184Z,0
2017-02-12T03:29:11.849Z,0
2017-02-12T03:30:21.323Z,0
2017-02-12T03:31:31.993Z,0
2017-02-12T03:32:42.665Z,0
2017-02-12T03:33:53.333Z,0
2017-02-12T03:35:03.997Z,0
2017-02-12T03:36:14.261Z,0
2017-02-12T03:37:24.920Z,0
2017-02-12T03:38:35.580Z,0
2017-02-12T03:39:45.845Z,0
2017-02-12T03:40:56.511Z,0
2017-02-12T03:42:07.177Z,0
2017-02-12T03:43:17.853Z,0
2017-02-12T03:44:28.515Z,0
2017-02-12T03:45:39.176Z,0
2017-02-12T03:46:49.834Z,0
2017-02-12T03:48:00.495Z,0
2017-02-12T03:49:10.775Z,0
2017-02-12T03:50:21.477Z,0
2017-02-12T03:51:32.139Z,0
2017-02-12T03:52:42.805Z,0
2017-02-12T03:53:53.464Z,0
2017-02-12T03:55:04.128Z,0
2017-02-12T03:56:14.017Z,0
2017-02-12T03:57:24.679Z,0
2017-02-12T03:58:35.338Z,0
2017-02-12T03:59:46.001Z,0
2017-02-12T04:00:56.666Z,0
2017-02-12T04:02:07.329Z,0
2017-02-12T04:03:17.598Z,0
2017-02-12T04:04:28.263Z,0
2017-02-12T04:05:38.536Z,0
2017-02-12T04:06:49.203Z,0
2017-02-12T04:07:59.871Z,0
2017-02-12T04:09:10.137Z,0
2017-02-12T04:10:20.805Z,0
2017-02-12T04:11:31.472Z,0
2017-02-12T04:12:42.142Z,0
2017-02-12T04:13:52.803Z,0
2017-02-12T04:15:03.472Z,0
2017-02-12T04:16:13.339Z,0
2017-02-12T04:17:24.005Z,0
2017-02-12T04:18:34.670Z,0
2017-02-12T04:19:45.334Z,0
2017-02-12T04:20:55.999Z,0
2017-02-12T04:22:06.659Z,0
2017-02-12T04:23:17.319Z,0
2017-02-12T04:24:28.002Z,0
2017-02-12T04:25:38.671Z,0
2017-02-12T04:26:48.934Z,0
2017-02-12T04:27:59.604Z,0
2017-02-12T04:29:10.276Z,0
2017-02-12T04:30:20.952Z,0
2017-02-12T04:31:31.617Z,0
2017-02-12T04:32:41.878Z,0
2017-02-12T04:33:52.543Z,0
2017-02-12T04:35:03.206Z,0
2017-02-12T04:36:13.085Z,0
2017-02-12T04:37:23.750Z,0
2017-02-12T04:38:34.418Z,0
2017-02-12T04:39:45.084Z,0
2017-02-12T04:40:55.753Z,0
2017-02-12T04:42:06.419Z,0
2017-02-12T04:43:16.688Z,0
2017-02-12T04:44:26.949Z,0
2017-02-12T04:45:37.616Z,0
2017-02-12T04:46:48.284Z,0
2017-02-12T04:47:58.943Z,0
2017-02-12T04:49:09.605Z,0
2017-02-12T04:50:20.267Z,0
2017-02-12T04:51:30.930Z,0
2017-02-12T04:52:41.197Z,0
2017-02-12T04:53:51.863Z,0
2017-02-12T04:55:02.534Z,0
2017-02-12T04:56:12.404Z,0
2017-02-12T04:57:23.081Z,0
2017-02-12T04:58:33.749Z,0
2017-02-12T04:59:44.411Z,0
2017-02-12T05:00:55.072Z,0
2017-02-12T05:02:05.763Z,0
2017-02-12T05:03:15.638Z,0
2017-02-12T05:04:26.304Z,0
2017-02-12T05:05:36.976Z,0
2017-02-12T05:06:47.641Z,0
2017-02-12T05:07:58.300Z,0
2017-02-12T05:09:08.960Z,0
2017-02-12T05:10:19.225Z,0
2017-02-12T05:11:29.888Z,0
2017-02-12T05:12:40.552Z,0
2017-02-12T05:13:50.823Z,0
2017-02-12T05:15:01.531Z,0
2017-02-12T05:16:12.197Z,0
2017-02-12T05:17:22.073Z,0
2017-02-12T05:18:32.735Z,0
2017-02-12T05:19:43.396Z,0
2017-02-12T05:20:54.054Z,0
2017-02-12T05:22:04.722Z,0
2017-02-12T05:23:15.383Z,0
2017-02-12T05:24:26.046Z,0
2017-02-12T05:25:36.708Z,0
2017-02-12T05:26:47.371Z,0
2017-02-12T05:27:58.059Z,0
2017-02-12T05:29:08.727Z,0
2017-02-12T05:30:19.389Z,0
2017-02-12T05:31:30.061Z,0
2017-02-12T05:32:40.727Z,0
2017-02-12T05:33:51.396Z,0
2017-02-12T05:35:02.083Z,0
2017-02-12T05:36:12.746Z,0
2017-02-12T05:37:23.051Z,0
2017-02-12T05:38:33.719Z,0
2017-02-12T05:39:44.385Z,0
2017-02-12T05:40:55.057Z,0
2017-02-12T05:42:05.721Z,0
2017-02-12T05:43:16.388Z,0
2017-02-12T05:44:27.056Z,0
2017-02-12T05:45:37.721Z,0
2017-02-12T05:46:48.383Z,0
2017-02-12T05:47:59.050Z,0
2017-02-12T05:49:09.755Z,0
2017-02-12T05:50:20.435Z,0
2017-02-12T05:51:31.106Z,0
2017-02-12T05:52:41.770Z,0
2017-02-12T05:53:52.431Z,0
2017-02-12T05:55:03.087Z,0
2017-02-12T05:56:12.951Z,0
2017-02-12T05:57:23.212Z,0
2017-02-12T05:58:33.878Z,0
2017-02-12T05:59:44.537Z,0
2017-02-12T06:00:55.203Z,0
2017-02-12T06:02:05.865Z,0
2017-02-12T06:03:16.132Z,0
2017-02-12T06:04:26.796Z,0
2017-02-12T06:05:37.460Z,0
2017-02-12T06:06:48.122Z,0
2017-02-12T06:07:58.794Z,0
2017-02-12T06:09:09.453Z,0
2017-02-12T06:10:20.120Z,0
2017-02-12T06:11:30.780Z,0
2017-02-12T06:12:41.439Z,0
2017-02-12T06:13:52.104Z,0
2017-02-12T06:15:02.370Z,0
2017-02-12T06:16:13.036Z,0
2017-02-12T06:17:23.303Z,0
2017-02-12T06:18:33.967Z,0
2017-02-12T06:19:44.633Z,0
2017-02-12T06:20:54.900Z,0
2017-02-12T06:22:05.604Z,0
2017-02-12T06:23:16.265Z,0
2017-02-12T06:24:26.929Z,0
2017-02-12T06:25:37.594Z,0
2017-02-12T06:26:48.254Z,0
2017-02-12T06:27:58.918Z,0
2017-02-12T06:29:09.580Z,0
2017-02-12T06:30:20.245Z,0
2017-02-12T06:31:30.910Z,0
2017-02-12T06:32:41.578Z,0
2017-02-12T06:33:52.261Z,0
2017-02-12T06:35:02.929Z,0
2017-02-12T06:36:13.201Z,0
2017-02-12T06:37:23.868Z,0
2017-02-12T06:38:34.535Z,0
2017-02-12T06:39:45.196Z,0
2017-02-12T06:40:55.859Z,0
2017-02-12T06:42:06.520Z,0
2017-02-12T06:43:17.183Z,0
2017-02-12T06:44:27.850Z,0
2017-02-12T06:45:38.512Z,0
2017-02-12T06:46:49.178Z,0
2017-02-12T06:47:59.840Z,0
2017-02-12T06:49:10.103Z,0
2017-02-12T06:50:20.763Z,0
2017-02-12T06:51:31.426Z,5
2017-02-12T06:52:42.095Z,5
2017-02-12T06:53:52.377Z,5
2017-02-12T06:55:03.045Z,5
2017-02-12T06:56:13.711Z,5
2017-02-12T06:57:24.376Z,5
2017-02-12T06:58:35.040Z,5
2017-02-12T06:59:45.703Z,10
2017-02-12T07:00:56.370Z,10
2017-02-12T07:02:07.037Z,10
2017-02-12T07:03:17.296Z,10
2017-02-12T07:04:27.959Z,10
2017-02-12T07:05:38.621Z,15
2017-02-12T07:06:49.287Z,15
2017-02-12T07:07:59.949Z,15
2017-02-12T07:09:10.213Z,20
2017-02-12T07:10:20.472Z,20
2017-02-12T07:11:31.139Z,20
2017-02-12T07:12:41.806Z,20
2017-02-12T07:13:52.079Z,20
2017-02-12T07:15:02.743Z,25
2017-02-12T07:16:13.406Z,25
2017-02-12T07:17:24.067Z,25
2017-02-12T07:18:34.733Z,30
2017-02-12T07:19:45.394Z,30
2017-02-12T07:20:56.055Z,30
2017-02-12T07:22:06.719Z,35
2017-02-12T07:23:17.374Z,35
2017-02-12T07:24:28.047Z,35
2017-02-12T07:25:38.710Z,40
2017-02-12T07:26:49.384Z,40
2017-02-12T07:28:00.047Z,45
2017-02-12T07:29:10.717Z,45
2017-02-12T07:30:21.385Z,45
2017-02-12T07:31:32.049Z,50
2017-02-12T07:32:42.708Z,55
2017-02-12T07:33:53.376Z,55
2017-02-12T07:35:04.042Z,55
2017-02-12T07:36:14.703Z,60
2017-02-12T07:37:24.971Z,60
2017-02-12T07:38:35.634Z,60
2017-02-12T07:39:46.296Z,65
2017-02-12T07:40:56.960Z,65
2017-02-12T07:42:07.618Z,65
2017-02-12T07:43:17.881Z,70
2017-02-12T07:44:28.537Z,70
2017-02-12T07:45:39.206Z,75
2017-02-12T07:46:49.868Z,75
2017-02-12T07:48:00.531Z,75
2017-02-12T07:49:11.194Z,75
2017-02-12T07:50:21.849Z,80
2017-02-12T07:51:32.509Z,80
2017-02-12T07:52:43.171Z,80
2017-02-12T07:53:53.827Z,80
2017-02-12T07:55:04.485Z,85
2017-02-12T07:56:15.148Z,85
2017-02-12T07:57:25.813Z,90
2017-02-12T07:58:36.470Z,90
2017-02-12T07:59:47.134Z,90
2017-02-12T08:00:57.801Z,90
2017-02-12T08:02:08.459Z,95
2017-02-12T08:03:18.730Z,95
2017-02-12T08:04:29.394Z,95
2017-02-12T08:05:40.059Z,100
2017-02-12T08:06:50.720Z,100
2017-02-12T08:08:01.387Z,100
2017-02-12T08:09:12.066Z,100
2017-02-12T08:10:22.731Z,105
2017-02-12T08:11:33.398Z,110
2017-02-12T08:12:44.058Z,105
2017-02-12T08:13:54.718Z,110
2017-02-12T08:15:05.385Z,110
2017-02-12T08:16:16.088Z,110
2017-02-12T08:17:26.755Z,115
2017-02-12T08:18:37.416Z,115
2017-02-12T08:19:48.084Z,115
2017-02-12T08:20:58.747Z,115
2017-02-12T08:22:09.417Z,115
2017-02-12T08:23:20.097Z,120
2017-02-12T08:24:30.764Z,120
2017-02-12T08:25:41.427Z,120
2017-02-12T08:26:52.088Z,125
2017-02-12T08:28:02.747Z,130
2017-02-12T08:29:13.007Z,125
2017-02-12T08:30:23.275Z,125
2017-02-12T08:31:33.942Z,130
2017-02-12T08:32:44.602Z,130
2017-02-12T08:33:55.265Z,135
2017-02-12T08:35:05.535Z,135
2017-02-12T08:36:16.202Z,140
2017-02-12T08:37:26.866Z,140
2017-02-12T08:38:37.531Z,145
2017-02-12T08:39:48.197Z,145
2017-02-12T08:40:58.855Z,150
2017-02-12T08:42:09.518Z,155
2017-02-12T08:43:19.784Z,165
2017-02-12T08:44:30.046Z,165
2017-02-12T08:45:40.707Z,170
2017-02-12T08:46:51.369Z,175
2017-02-12T08:48:02.034Z,180
2017-02-12T08:49:12.744Z,185
2017-02-12T08:50:23.402Z,190
2017-02-12T08:51:34.063Z,200
2017-02-12T08:52:44.728Z,195
2017-02-12T08:53:55.391Z,195
2017-02-12T08:55:05.659Z,200
2017-02-12T08:56:15.926Z,200
2017-02-12T08:57:26.587Z,205
2017-02-12T08:58:37.251Z,205
2017-02-12T08:59:47.916Z,205
2017-02-12T09:00:58.577Z,210
2017-02-12T09:02:09.236Z,210
2017-02-12T09:03:19.504Z,210
2017-02-12T09:04:30.164Z,210
2017-02-12T09:05:40.818Z,215
2017-02-12T09:06:51.474Z,215
2017-02-12T09:08:02.144Z,215
2017-02-12T09:09:12.408Z,220
2017-02-12T09:10:21.887Z,220
2017-02-12T09:11:32.556Z,225
2017-02-12T09:12:43.220Z,230
2017-02-12T09:13:53.885Z,235
2017-02-12T09:15:04.550Z,235
2017-02-12T09:16:14.820Z,240
2017-02-12T09:17:25.507Z,245
2017-02-12T09:18:36.186Z,245
2017-02-12T09:19:46.847Z,250
2017-02-12T09:20:57.511Z,250
2017-02-12T09:22:08.177Z,255
2017-02-12T09:23:18.440Z,260
2017-02-12T09:24:29.106Z,265
2017-02-12T09:25:39.768Z,270
2017-02-12T09:26:50.038Z,280
2017-02-12T09:28:00.751Z,285
2017-02-12T09:29:11.415Z,290
2017-02-12T09:30:21.683Z,300
2017-02-12T09:31:32.349Z,305
2017-02-12T09:32:43.009Z,305
2017-02-12T09:33:53.678Z,305
2017-02-12T09:35:04.386Z,305
2017-02-12T09:36:14.257Z,305
2017-02-12T09:37:24.524Z,300
2017-02-12T09:38:35.187Z,300
2017-02-12T09:39:45.854Z,295
2017-02-12T09:40:56.520Z,295
2017-02-12T09:42:07.187Z,290
2017-02-12T09:43:17.451Z,290
2017-02-12T09:44:28.117Z,285
2017-02-12T09:45:38.780Z,285
2017-02-12T09:46:49.448Z,285
2017-02-12T09:48:00.113Z,280
2017-02-12T09:49:10.777Z,280
2017-02-12T09:50:21.038Z,280
2017-02-12T09:51:31.702Z,275
2017-02-12T09:52:42.360Z,275
2017-02-12T09:53:53.029Z,275
2017-02-12T09:55:03.687Z,275
2017-02-12T09:56:14.349Z,270
2017-02-12T09:57:25.018Z,270
2017-02-12T09:58:35.680Z,270
2017-02-12T09:59:46.338Z,270
2017-02-12T10:00:56.997Z,270
2017-02-12T10:02:07.660Z,270
2017-02-12T10:03:18.321Z,270
2017-02-12T10:04:28.986Z,275
2017-02-12T10:05:39.651Z,275
2017-02-12T10:06:50.316Z,275
2017-02-12T10:08:00.978Z,280
2017-02-12T10:09:11.245Z,280
2017-02-12T10:10:21.511Z,280
2017-02-12T10:11:32.195Z,280
2017-02-12T10:12:42.861Z,285
2017-02-12T10:13:53.524Z,285
2017-02-12T10:15:04.192Z,290
2017-02-12T10:16:14.860Z,290
2017-02-12T10:17:25.126Z,295
2017-02-12T10:18:35.796Z,295
2017-02-12T10:19:46.455Z,295
2017-02-12T10:20:57.121Z,300
2017-02-12T10:22:07.787Z,300
2017-02-12T10:23:18.453Z,300
2017-02-12T10:24:29.128Z,300
2017-02-12T10:25:39.791Z,305
2017-02-12T10:26:50.454Z,305
2017-02-12T10:28:01.119Z,305
2017-02-12T10:29:11.784Z,305
2017-02-12T10:30:22.447Z,305
2017-02-12T10:31:33.112Z,305
2017-02-12T10:32:43.375Z,305
2017-02-12T10:33:54.040Z,310
2017-02-12T10:35:04.700Z,310
2017-02-12T10:36:14.964Z,310
2017-02-12T10:37:25.233Z,310
2017-02-12T10:38:35.897Z,310
2017-02-12T10:39:46.565Z,310
2017-02-12T10:40:57.241Z,310
2017-02-12T10:42:07.944Z,315
2017-02-12T10:43:17.845Z,315
2017-02-12T10:44:28.552Z,315
2017-02-12T10:45:39.215Z,315
2017-02-12T10:46:49.886Z,315
2017-02-12T10:48:00.549Z,320
2017-02-12T10:49:11.214Z,320
2017-02-12T10:50:21.477Z,320
2017-02-12T10:51:32.148Z,320
2017-02-12T10:52:42.811Z,325
2017-02-12T10:53:53.481Z,325
2017-02-12T10:55:04.147Z,325
2017-02-12T10:56:14.813Z,325
2017-02-12T10:57:25.085Z,330
2017-02-12T10:58:35.757Z,330
2017-02-12T10:59:46.574Z,335
2017-02-12T11:00:57.244Z,335
2017-02-12T11:02:07.916Z,380
2017-02-12T11:03:18.228Z,515
2017-02-12T11:04:28.909Z,555
2017-02-12T11:05:39.608Z,585
2017-02-12T11:06:50.286Z,570
2017-02-12T11:08:00.999Z,550
2017-02-12T11:09:10.908Z,535
2017-02-12T11:10:21.575Z,530
2017-02-12T11:11:31.845Z,530
2017-02-12T11:12:42.524Z,530
2017-02-12T11:13:53.190Z,525
2017-02-12T11:15:03.859Z,525
2017-02-12T11:16:13.736Z,530
2017-02-12T11:17:24.412Z,520
2017-02-12T11:18:35.075Z,475
2017-02-12T11:19:45.745Z,525
2017-02-12T11:20:56.413Z,390
2017-02-12T11:22:07.085Z,380
2017-02-12T11:23:17.363Z,455
2017-02-12T11:24:28.037Z,555
2017-02-12T11:25:38.707Z,440
2017-02-12T11:26:49.377Z,435
2017-02-12T11:28:00.055Z,545
2017-02-12T11:29:10.331Z,480
2017-02-12T11:30:21.002Z,465
2017-02-12T11:31:31.675Z,520
2017-02-12T11:32:42.388Z,490
2017-02-12T11:33:53.056Z,570
2017-02-12T11:35:03.745Z,480
2017-02-12T11:36:14.418Z,465
2017-02-12T11:37:25.091Z,485
2017-02-12T11:38:35.764Z,460
2017-02-12T11:39:46.441Z,445
2017-02-12T11:40:57.106Z,440
2017-02-12T11:42:07.780Z,425
2017-02-12T11:43:18.455Z,530
2017-02-12T11:44:28.729Z,635
2017-02-12T11:45:39.402Z,565
2017-02-12T11:46:50.080Z,650
2017-02-12T11:48:00.756Z,670
2017-02-12T11:49:11.482Z,660
2017-02-12T11:50:22.162Z,680
2017-02-12T11:51:32.841Z,700
2017-02-12T11:52:43.520Z,700
2017-02-12T11:53:54.193Z,685
2017-02-12T11:55:04.916Z,660
2017-02-12T11:56:15.592Z,595
2017-02-12T11:57:26.269Z,655
2017-02-12T11:58:36.945Z,645
2017-02-12T11:59:47.639Z,625
2017-02-12T12:00:58.317Z,630
2017-02-12T12:02:08.993Z,615
2017-02-12T12:03:19.273Z,625
2017-02-12T12:04:29.558Z,595
2017-02-12T12:05:40.247Z,610
2017-02-12T12:06:50.921Z,585
2017-02-12T12:08:01.598Z,565
2017-02-12T12:09:11.891Z,505
2017-02-12T12:10:22.174Z,495
2017-02-12T12:11:32.854Z,495
2017-02-12T12:12:43.528Z,505
2017-02-12T12:13:54.209Z,515
2017-02-12T12:15:04.499Z,540
2017-02-12T12:16:15.175Z,580
2017-02-12T12:17:25.854Z,580
2017-02-12T12:18:36.534Z,550
2017-02-12T12:19:47.212Z,550
2017-02-12T12:20:57.888Z,585
2017-02-12T12:22:08.572Z,585
2017-02-12T12:23:18.468Z,590
2017-02-12T12:24:28.753Z,645
2017-02-12T12:25:39.437Z,630
2017-02-12T12:26:49.727Z,605
2017-02-12T12:28:00.410Z,635
2017-02-12T12:29:10.696Z,620
2017-02-12T12:30:21.380Z,645
2017-02-12T12:31:32.089Z,645
2017-02-12T12:32:42.765Z,635
2017-02-12T12:33:53.047Z,620
2017-02-12T12:35:03.741Z,585
2017-02-12T12:36:14.027Z,560
2017-02-12T12:37:24.309Z,510
2017-02-12T12:38:35.019Z,505
2017-02-12T12:39:45.695Z,500
2017-02-12T12:40:56.022Z,495
2017-02-12T12:42:06.307Z,495
2017-02-12T12:43:16.591Z,515
2017-02-12T12:44:27.265Z,520
2017-02-12T12:45:37.937Z,550
2017-02-12T12:46:48.658Z,575
2017-02-12T12:47:59.342Z,560
2017-02-12T12:49:10.025Z,575
2017-02-12T12:50:20.702Z,525
2017-02-12T12:51:30.982Z,535
2017-02-12T12:52:41.655Z,505
2017-02-12T12:53:52.339Z,525
2017-02-12T12:55:03.022Z,510
2017-02-12T12:56:13.305Z,485
2017-02-12T12:57:24.018Z,485
2017-02-12T12:58:34.692Z,505
2017-02-12T12:59:44.968Z,480
2017-02-12T13:00:55.646Z,445
2017-02-12T13:02:06.318Z,435
2017-02-12T13:03:16.998Z,515
2017-02-12T13:04:27.669Z,510
2017-02-12T13:05:38.345Z,510
2017-02-12T13:06:49.021Z,485
2017-02-12T13:07:59.702Z,455
2017-02-12T13:09:10.378Z,440
2017-02-12T13:10:21.053Z,430
2017-02-12T13:11:30.935Z,480
2017-02-12T13:12:41.609Z,490
2017-02-12T13:13:52.278Z,475
2017-02-12T13:15:02.992Z,460
2017-02-12T13:16:13.669Z,460
2017-02-12T13:17:24.340Z,430
2017-02-12T13:18:35.012Z,425
2017-02-12T13:19:45.705Z,460
2017-02-12T13:20:56.379Z,475
2017-02-12T13:22:07.057Z,450
2017-02-12T13:23:17.342Z,455
2017-02-12T13:24:28.008Z,460
2017-02-12T13:25:38.683Z,445
2017-02-12T13:26:49.354Z,450
2017-02-12T13:28:00.027Z,475
2017-02-12T13:29:10.699Z,490
2017-02-12T13:30:21.371Z,465
2017-02-12T13:31:32.042Z,445
2017-02-12T13:32:42.718Z,420
2017-02-12T13:33:52.599Z,410
2017-02-12T13:35:03.265Z,415
2017-02-12T13:36:13.546Z,405
2017-02-12T13:37:24.226Z,415
2017-02-12T13:38:34.500Z,405
2017-02-12T13:39:45.168Z,410
2017-02-12T13:40:55.890Z,430
2017-02-12T13:42:06.567Z,445
2017-02-12T13:43:16.840Z,430
2017-02-12T13:44:27.510Z,435
2017-02-12T13:45:37.795Z,435
2017-02-12T13:46:48.499Z,425
2017-02-12T13:47:59.205Z,405
2017-02-12T13:49:09.880Z,405
2017-02-12T13:50:20.550Z,400
2017-02-12T13:51:31.215Z,380
2017-02-12T13:52:41.889Z,390
2017-02-12T13:53:52.561Z,370
2017-02-12T13:55:03.236Z,360
2017-02-12T13:56:13.509Z,380
2017-02-12T13:57:23.812Z,345
2017-02-12T13:58:34.484Z,325
2017-02-12T13:59:45.155Z,315
2017-02-12T14:00:55.826Z,305
2017-02-12T14:02:06.507Z,295
2017-02-12T14:03:16.777Z,285
2017-02-12T14:04:27.440Z,290
2017-02-12T14:05:38.192Z,300
2017-02-12T14:06:48.861Z,300
2017-02-12T14:07:59.533Z,290
2017-02-12T14:09:10.204Z,290
2017-02-12T14:10:20.876Z,285
2017-02-12T14:11:31.151Z,280
2017-02-12T14:12:41.826Z,275
2017-02-12T14:13:52.503Z,275
2017-02-12T14:15:03.168Z,270
2017-02-12T14:16:13.044Z,270
2017-02-12T14:17:23.715Z,270
2017-02-12T14:18:33.990Z,275
2017-02-12T14:19:44.667Z,275
2017-02-12T14:20:55.340Z,275
2017-02-12T14:22:05.614Z,290
2017-02-12T14:23:15.885Z,295
2017-02-12T14:24:26.550Z,295
2017-02-12T14:25:36.832Z,290
2017-02-12T14:26:47.505Z,290
2017-02-12T14:27:58.175Z,285
2017-02-12T14:29:08.849Z,280
2017-02-12T14:30:19.149Z,280
2017-02-12T14:31:29.426Z,275
2017-02-12T14:32:40.097Z,275
2017-02-12T14:33:50.771Z,275
2017-02-12T14:35:01.475Z,275
2017-02-12T14:36:12.141Z,270
2017-02-12T14:37:22.012Z,270
2017-02-12T14:38:32.720Z,270
2017-02-12T14:39:43.393Z,270
2017-02-12T14:40:53.684Z,275
2017-02-12T14:42:03.957Z,275
2017-02-12T14:43:14.630Z,275
2017-02-12T14:44:25.303Z,275
2017-02-12T14:45:35.972Z,280
2017-02-12T14:46:46.681Z,280
2017-02-12T14:47:57.353Z,280
2017-02-12T14:49:08.326Z,275
2017-02-12T14:50:18.595Z,270
2017-02-12T14:51:28.870Z,265
2017-02-12T14:52:39.140Z,260
2017-02-12T14:53:49.807Z,245
2017-02-12T14:55:00.474Z,240
2017-02-12T14:56:11.145Z,235
2017-02-12T14:57:21.817Z,220
2017-02-12T14:58:32.481Z,210
2017-02-12T14:59:43.157Z,200
2017-02-12T15:00:53.824Z,195
2017-02-12T15:02:04.491Z,185
2017-02-12T15:03:14.759Z,175
2017-02-12T15:04:25.422Z,165
2017-02-12T15:05:36.085Z,160
2017-02-12T15:06:46.745Z,155
2017-02-12T15:07:57.418Z,155
2017-02-12T15:09:08.087Z,150
2017-02-12T15:10:17.962Z,145
2017-02-12T15:11:28.634Z,140
2017-02-12T15:12:39.298Z,135
2017-02-12T15:13:49.974Z,130
2017-02-12T15:15:00.640Z,130
2017-02-12T15:16:10.914Z,125
2017-02-12T15:17:21.580Z,120
2017-02-12T15:18:32.252Z,115
2017-02-12T15:19:42.946Z,115
2017-02-12T15:20:53.616Z,110
2017-02-12T15:22:04.282Z,110
2017-02-12T15:23:14.958Z,105
2017-02-12T15:24:25.662Z,100
2017-02-12T15:25:36.377Z,95
2017-02-12T15:26:47.043Z,95
2017-02-12T15:27:57.711Z,90
2017-02-12T15:29:08.041Z,85
2017-02-12T15:30:18.324Z,80
2017-02-12T15:31:28.993Z,80
2017-02-12T15:32:39.661Z,75
2017-02-12T15:33:50.322Z,70
2017-02-12T15:35:00.983Z,65
2017-02-12T15:36:11.252Z,65
2017-02-12T15:37:21.914Z,60
2017-02-12T15:38:32.574Z,55
2017-02-12T15:39:43.237Z,55
2017-02-12T15:40:53.901Z,50
2017-02-12T15:42:04.173Z,45
2017-02-12T15:43:14.846Z,45
2017-02-12T15:44:25.509Z,40
2017-02-12T15:45:36.174Z,40
2017-02-12T15:46:46.840Z,40
2017-02-12T15:47:57.517Z,35
2017-02-12T15:49:08.182Z,35
2017-02-12T15:50:18.454Z,35
2017-02-12T15:51:29.121Z,30
2017-02-12T15:52:39.826Z,30
2017-02-12T15:53:50.493Z,25
2017-02-12T15:55:01.160Z,25
2017-02-12T15:56:11.827Z,25
2017-02-12T15:57:22.492Z,20
2017-02-12T15:58:33.158Z,20
2017-02-12T15:59:43.825Z,20
2017-02-12T16:00:54.495Z,20
2017-02-12T16:02:05.160Z,20
2017-02-12T16:03:15.432Z,15
2017-02-12T16:04:26.100Z,15
2017-02-12T16:05:36.770Z,15
2017-02-12T16:06:47.040Z,15
2017-02-12T16:07:57.705Z,10
2017-02-12T16:09:08.371Z,10
2017-02-12T16:10:18.635Z,10
2017-02-12T16:11:29.347Z,5
2017-02-12T16:12:40.011Z,5
2017-02-12T16:13:50.680Z,5
2017-02-12T16:15:01.351Z,0
2017-02-12T16:16:12.024Z,0
2017-02-12T16:17:22.688Z,0
2017-02-12T16:18:33.353Z,0
2017-02-12T16:19:44.018Z,0
2017-02-12T16:20:54.681Z,0
2017-02-12T16:22:05.345Z,0
2017-02-12T16:23:14.820Z,0
2017-02-12T16:24:25.483Z,0
2017-02-12T16:25:36.155Z,0
2017-02-12T16:26:46.827Z,0
2017-02-12T16:27:57.490Z,0
2017-02-12T16:29:08.165Z,0
2017-02-12T16:30:18.833Z,0
2017-02-12T16:31:29.499Z,0
2017-02-12T16:32:40.169Z,0
2017-02-12T16:33:50.834Z,0
2017-02-12T16:35:01.502Z,0
2017-02-12T16:36:12.171Z,0
2017-02-12T16:37:22.833Z,0
2017-02-12T16:38:33.492Z,0
2017-02-12T16:39:44.165Z,0
2017-02-12T16:40:54.833Z,0
2017-02-12T16:42:05.501Z,0
2017-02-12T16:43:15.769Z,0
2017-02-12T16:44:26.427Z,0
2017-02-12T16:45:36.694Z,0
2017-02-12T16:46:47.362Z,0
2017-02-12T16:47:58.028Z,0